Time;durP1;ratioP1;P1;durP2;ratioP2;P2;SDS_P1;SDS_P2;PMS_P1;PMS_P2;Temp;Humidity;BMP_temperature;BMP_pressure;BME280_temperature;BME280_humidity;BME280_pressure;Samples;Min_cycle;Max_cycle;Signal;HPM_P1;HPM_P2
2021/12/08 00:02:20;;;;;;;5.63;2.47;;;;;;;4.04;95.85;99139.53;5018616;28;20029;-76
2021/12/08 00:04:46;;;;;;;5.28;2.47;;;;;;;4.06;95.91;99131.38;5018090;28;20026;-76
2021/12/08 00:07:11;;;;;;;5.80;2.63;;;;;;;4.11;96.17;99115.75;5024664;28;20021;-73
2021/12/08 00:14:56;;;;;;;5.22;2.28;;;;;;;4.23;95.94;99103.19;5025783;28;20087;-76
2021/12/08 00:17:22;;;;;;;5.20;2.60;;;;;;;4.23;96.20;99103.19;5016667;28;20026;-75
2021/12/08 00:19:47;;;;;;;4.38;2.45;;;;;;;4.26;96.34;99106.53;5012130;28;20038;-76
2021/12/08 00:22:12;;;;;;;4.35;2.60;;;;;;;4.31;96.48;99101.66;5016718;28;20048;-77
2021/12/08 00:24:38;;;;;;;7.88;2.78;;;;;;;4.34;96.38;99106.81;5025855;28;20045;-76
2021/12/08 00:27:03;;;;;;;5.47;2.53;;;;;;;4.39;96.32;99105.63;5027275;28;20041;-76
2021/12/08 00:29:29;;;;;;;4.80;2.58;;;;;;;4.40;96.65;99121.66;5028459;28;20025;-76
2021/12/08 00:31:54;;;;;;;4.18;2.38;;;;;;;4.43;96.73;99117.84;5025720;28;20378;-72
2021/12/08 00:34:19;;;;;;;6.45;2.47;;;;;;;4.46;96.61;99133.78;5027961;28;20018;-76
2021/12/08 00:36:49;;;;;;;7.32;2.63;;;;;;;4.48;96.66;99126.47;5015228;28;20076;-76
2021/12/08 00:39:14;;;;;;;5.25;2.25;;;;;;;4.51;96.41;99116.31;5023275;28;20045;-72
2021/12/08 00:41:41;;;;;;;4.78;2.30;;;;;;;4.59;96.78;99124.69;5021447;28;20164;-73
2021/12/08 00:44:06;;;;;;;3.45;2.53;;;;;;;4.60;96.67;99110.22;5027940;28;20021;-77
2021/12/08 00:46:32;;;;;;;3.08;1.92;;;;;;;4.66;96.42;99110.75;5026085;28;20567;-72
2021/12/08 00:48:58;;;;;;;4.95;2.10;;;;;;;4.69;96.12;99115.91;5028089;28;20078;-76
2021/12/08 00:51:23;;;;;;;7.38;2.35;;;;;;;4.69;96.48;99118.59;5022796;28;20033;-76
2021/12/08 00:53:49;;;;;;;4.53;2.35;;;;;;;4.71;96.38;99111.25;5027628;28;20036;-75
2021/12/08 00:56:15;;;;;;;5.93;2.20;;;;;;;4.74;96.50;99121.78;5029010;28;20098;-72
2021/12/08 00:58:40;;;;;;;6.97;1.98;;;;;;;4.79;96.44;99119.59;5019486;28;20049;-72
2021/12/08 01:01:07;;;;;;;5.32;2.60;;;;;;;4.82;96.56;99136.41;5024669;28;20033;-72
2021/12/08 01:03:33;;;;;;;2.72;1.70;;;;;;;4.82;96.27;99144.47;5025144;28;20036;-73
2021/12/08 01:05:59;;;;;;;3.10;1.70;;;;;;;4.86;96.35;99137.91;5025860;28;20094;-77
2021/12/08 01:08:27;;;;;;;3.90;2.03;;;;;;;4.92;95.97;99133.88;5026962;28;20033;-75
2021/12/08 01:10:56;;;;;;;2.10;1.90;;;;;;;4.93;96.06;99151.75;5010587;28;20409;-76
2021/12/08 01:13:23;;;;;;;8.50;2.17;;;;;;;4.95;96.07;99152.50;5009569;28;20014;-76
2021/12/08 01:15:51;;;;;;;6.55;2.28;;;;;;;4.94;96.21;99147.22;5018847;28;20037;-76
2021/12/08 01:18:18;;;;;;;2.72;1.63;;;;;;;4.97;95.80;99153.22;5027862;28;20032;-76
2021/12/08 01:20:44;;;;;;;4.07;1.70;;;;;;;4.99;96.18;99156.69;5018546;28;20029;-76
2021/12/08 01:23:09;;;;;;;3.60;1.98;;;;;;;5.01;95.87;99154.72;5027069;28;21453;-76
2021/12/08 01:25:35;;;;;;;3.50;1.85;;;;;;;5.00;95.75;99146.75;5020213;28;20038;-73
2021/12/08 01:28:01;;;;;;;4.47;2.10;;;;;;;5.06;95.76;99155.22;5022460;28;20454;-76
2021/12/08 01:30:26;;;;;;;3.50;1.77;;;;;;;5.09;95.17;99167.63;5021941;28;20482;-75
2021/12/08 01:32:53;;;;;;;4.10;2.00;;;;;;;5.10;95.67;99159.41;5020174;28;20475;-76
2021/12/08 01:35:19;;;;;;;5.05;1.90;;;;;;;5.10;95.42;99155.84;5028397;28;20033;-77
2021/12/08 01:37:45;;;;;;;3.58;1.70;;;;;;;5.14;95.42;99156.47;5009226;28;20034;-76
2021/12/08 01:40:13;;;;;;;3.03;1.98;;;;;;;5.19;95.45;99159.69;5024264;28;20077;-72
2021/12/08 01:42:46;;;;;;;4.45;1.92;;;;;;;5.20;95.43;99161.38;5026147;28;20452;-75
2021/12/08 01:47:58;;;;;;;8.57;2.25;;;;;;;5.21;95.56;99168.50;5033338;28;20060;-77
2021/12/08 01:50:24;;;;;;;6.55;1.95;;;;;;;5.23;95.56;99177.34;5034031;28;20037;-76
2021/12/08 01:52:50;;;;;;;4.13;2.28;;;;;;;5.21;95.83;99177.44;5031760;28;20100;-72
2021/12/08 01:55:15;;;;;;;7.28;2.28;;;;;;;5.21;95.91;99166.66;5029812;28;20857;-75
2021/12/08 01:57:41;;;;;;;5.07;2.30;;;;;;;5.22;95.63;99178.28;5033853;28;20047;-77
2021/12/08 02:00:10;;;;;;;5.78;1.98;;;;;;;5.23;95.64;99177.34;5030344;28;20025;-74
2021/12/08 02:02:36;;;;;;;5.57;2.50;;;;;;;5.25;95.74;99180.75;5032862;28;20033;-72
2021/12/08 02:05:01;;;;;;;8.10;2.08;;;;;;;5.26;95.66;99185.16;5020957;28;20029;-71
2021/12/08 02:07:26;;;;;;;6.65;2.38;;;;;;;5.23;95.68;99186.28;5019660;28;20025;-76
2021/12/08 02:09:52;;;;;;;6.75;1.75;;;;;;;5.24;95.66;99187.13;5021149;28;20110;-72
2021/12/08 02:12:17;;;;;;;8.40;2.08;;;;;;;5.28;95.49;99188.63;5023939;28;20021;-76
2021/12/08 02:14:42;;;;;;;7.32;2.70;;;;;;;5.29;94.96;99207.38;5021942;28;20669;-76
2021/12/08 02:17:10;;;;;;;4.05;1.98;;;;;;;5.32;95.47;99201.75;5019076;28;20396;-76
2021/12/08 02:19:36;;;;;;;4.70;2.13;;;;;;;5.33;95.44;99208.00;5029985;28;20025;-72
2021/12/08 02:22:02;;;;;;;5.38;2.20;;;;;;;5.29;94.77;99203.81;5027878;28;20044;-76
2021/12/08 02:24:27;;;;;;;4.07;1.90;;;;;;;5.31;94.01;99207.22;5033203;28;20033;-73
2021/12/08 02:26:54;;;;;;;6.00;2.33;;;;;;;5.34;94.30;99220.50;5028396;28;20036;-76
2021/12/08 02:29:39;;;;;;;10.25;2.33;;;;;;;5.33;94.64;99222.34;5032423;28;20500;-75
2021/12/08 02:32:25;;;;;;;5.38;2.10;;;;;;;5.34;93.95;99229.44;5014899;28;20080;-74
2021/12/08 02:48:33;;;;;;;4.18;1.50;;;;;;;5.11;92.94;99216.84;5027075;28;20040;-77
2021/12/08 02:50:59;;;;;;;5.65;1.70;;;;;;;5.10;93.05;99232.16;5030549;28;20037;-77
2021/12/08 02:53:25;;;;;;;5.45;2.60;;;;;;;5.06;93.05;99235.22;5022435;28;20420;-76
2021/12/08 02:55:50;;;;;;;5.00;2.30;;;;;;;5.06;92.97;99246.84;5020886;28;20068;-76
2021/12/08 02:58:16;;;;;;;8.88;2.00;;;;;;;5.09;93.33;99243.09;5015782;28;20072;-76
2021/12/08 03:00:50;;;;;;;8.75;2.10;;;;;;;5.10;93.38;99234.00;5020499;28;20468;-76
2021/12/08 03:03:16;;;;;;;7.80;1.90;;;;;;;5.11;93.58;99238.41;5024573;28;20029;-76
2021/12/08 03:05:41;;;;;;;6.75;1.90;;;;;;;5.10;93.26;99226.78;5011348;28;20655;-75
2021/12/08 03:08:07;;;;;;;3.85;1.40;;;;;;;5.15;93.38;99234.53;5014078;28;20051;-76
2021/12/08 03:10:38;;;;;;;3.72;1.75;;;;;;;5.14;93.78;99232.81;5026297;28;20757;-73
2021/12/08 03:13:04;;;;;;;5.15;1.70;;;;;;;5.14;93.38;99230.13;5016523;28;20048;-76
2021/12/08 03:15:29;;;;;;;6.78;1.83;;;;;;;5.14;93.72;99224.72;5021897;28;20497;-76
2021/12/08 03:17:54;;;;;;;6.05;2.00;;;;;;;5.17;93.66;99237.09;5027544;28;20039;-75
2021/12/08 03:20:36;;;;;;;8.05;2.35;;;;;;;5.18;93.81;99242.38;5022599;28;20033;-75
2021/12/08 03:23:03;;;;;;;6.40;1.80;;;;;;;5.21;93.66;99252.06;5022894;28;20440;-76
2021/12/08 03:25:34;;;;;;;4.18;1.55;;;;;;;5.19;93.49;99259.41;5020094;28;20030;-76
2021/12/08 03:28:08;;;;;;;7.10;1.75;;;;;;;5.22;93.59;99261.84;5025247;28;20378;-77
2021/12/08 03:30:39;;;;;;;4.78;1.55;;;;;;;5.22;92.85;99268.13;5026735;28;20032;-76
2021/12/08 03:33:05;;;;;;;5.20;2.10;;;;;;;5.22;92.80;99262.75;5030347;28;20037;-72
2021/12/08 03:35:30;;;;;;;3.67;1.63;;;;;;;5.21;92.04;99254.75;5029460;28;20025;-73
2021/12/08 03:37:56;;;;;;;10.63;1.70;;;;;;;5.21;91.78;99269.09;5029942;28;20029;-76
2021/12/08 03:40:24;;;;;;;10.13;2.13;;;;;;;5.16;90.99;99255.09;5022030;28;20056;-76
2021/12/08 03:42:53;;;;;;;3.92;1.60;;;;;;;5.15;90.98;99257.94;5027218;28;20700;-75
2021/12/08 03:45:34;;;;;;;9.70;2.15;;;;;;;5.16;90.90;99260.50;5024409;28;20083;-75
2021/12/08 03:48:04;;;;;;;8.60;1.42;;;;;;;5.11;90.53;99255.44;5020459;28;20041;-71
2021/12/08 03:50:37;;;;;;;9.23;2.00;;;;;;;5.04;90.59;99250.66;5028342;28;20119;-74
2021/12/08 03:53:04;;;;;;;2.92;1.75;;;;;;;4.98;90.37;99273.50;5025336;28;20172;-74
2021/12/08 03:55:30;;;;;;;5.10;1.85;;;;;;;4.91;90.46;99269.56;5029126;28;20135;-71
2021/12/08 03:57:55;;;;;;;3.47;1.70;;;;;;;4.88;90.40;99264.41;5029624;28;20108;-74
2021/12/08 04:00:24;;;;;;;5.28;2.10;;;;;;;4.87;89.72;99273.47;5022534;28;20056;-74
2021/12/08 04:02:49;;;;;;;10.82;2.00;;;;;;;4.82;90.09;99278.34;5029191;28;20480;-75
2021/12/08 04:05:21;;;;;;;12.88;2.03;;;;;;;4.75;90.17;99268.97;5021481;28;20029;-71
2021/12/08 04:07:48;;;;;;;8.68;1.50;;;;;;;4.70;89.88;99277.38;5029623;28;20048;-74
2021/12/08 04:10:18;;;;;;;9.18;1.70;;;;;;;4.66;89.91;99278.59;5023126;28;20025;-74
2021/12/08 04:12:51;;;;;;;3.38;1.50;;;;;;;4.62;89.46;99277.13;5016050;28;20106;-74
2021/12/08 04:15:17;;;;;;;;;;;;;;;4.60;90.82;99276.34;5015807;28;20169;-74
2021/12/08 04:17:51;;;;;;;4.05;1.40;;;;;;;4.48;90.35;99282.66;5020112;28;19971;-73
2021/12/08 04:20:24;;;;;;;4.13;1.23;;;;;;;4.39;90.47;99269.84;5026429;28;20028;-74
2021/12/08 04:22:52;;;;;;;5.55;1.85;;;;;;;4.32;90.12;99286.44;5028701;28;20129;-74
2021/12/08 04:25:23;;;;;;;7.30;1.40;;;;;;;4.25;90.58;99298.63;5021586;28;20024;-74
2021/12/08 04:27:52;;;;;;;7.15;1.92;;;;;;;4.20;90.66;99287.31;5024612;28;20125;-74
2021/12/08 04:30:23;;;;;;;3.88;1.52;;;;;;;4.16;90.92;99295.72;5024464;28;20056;-74
2021/12/08 04:32:49;;;;;;;3.90;1.42;;;;;;;4.15;90.90;99300.25;5019967;28;20037;-71
2021/12/08 04:35:17;;;;;;;6.65;1.73;;;;;;;4.12;91.02;99304.97;5029303;28;20040;-74
2021/12/08 04:37:47;;;;;;;4.22;1.88;;;;;;;4.07;91.10;99295.41;5016444;28;20124;-74
2021/12/08 04:40:36;;;;;;;4.82;1.80;;;;;;;4.00;91.11;99296.78;5028523;28;20058;-73
2021/12/08 04:46:07;;;;;;;5.28;1.50;;;;;;;3.95;91.12;99300.78;5025236;28;20503;-73
2021/12/08 04:49:04;;;;;;;6.03;1.63;;;;;;;3.91;91.14;99285.81;5029180;28;20029;-74
2021/12/08 05:02:41;;;;;;;4.75;2.33;;;;;;;3.90;90.26;99314.53;5027478;28;20130;-74
2021/12/08 05:05:25;;;;;;;9.13;1.48;;;;;;;3.91;89.86;99308.19;5015063;28;20046;-70
2021/12/08 05:07:56;;;;;;;2.50;1.35;;;;;;;3.86;90.46;99310.34;5008637;28;20037;-74
2021/12/08 05:10:35;;;;;;;6.57;1.20;;;;;;;3.78;90.59;99331.56;5017798;28;20036;-74
2021/12/08 05:13:04;;;;;;;5.68;1.60;;;;;;;3.70;90.29;99318.63;5012513;28;20017;-74
2021/12/08 05:15:35;;;;;;;13.23;1.80;;;;;;;3.69;90.77;99324.13;5006886;28;20172;-70
2021/12/08 05:18:10;;;;;;;6.85;1.65;;;;;;;3.73;90.81;99339.03;5022557;28;20106;-73
2021/12/08 05:20:42;;;;;;;3.28;1.35;;;;;;;3.78;90.96;99327.03;5027679;28;20140;-74
2021/12/08 05:23:14;;;;;;;8.45;2.03;;;;;;;3.79;90.77;99318.00;5023528;28;20022;-73
2021/12/08 05:25:41;;;;;;;4.53;1.52;;;;;;;3.81;90.66;99316.03;5017719;28;20169;-70
2021/12/08 05:28:10;;;;;;;5.20;1.60;;;;;;;3.92;90.40;99328.78;5007894;28;20061;-70
2021/12/08 05:30:43;;;;;;;9.25;1.70;;;;;;;3.93;90.68;99324.25;5009871;28;20022;-73
2021/12/08 05:33:11;;;;;;;2.17;1.13;;;;;;;3.94;90.04;99328.66;5027408;28;20040;-74
2021/12/08 05:35:39;;;;;;;10.77;1.95;;;;;;;3.94;90.30;99328.66;5026259;28;20098;-75
2021/12/08 05:38:04;;;;;;;6.68;1.80;;;;;;;3.88;90.55;99324.56;5024419;28;20052;-74
2021/12/08 05:40:37;;;;;;;5.25;1.17;;;;;;;3.88;90.41;99335.31;5018262;28;20105;-74
2021/12/08 05:43:05;;;;;;;10.20;1.70;;;;;;;3.87;90.46;99343.47;5015009;28;20025;-71
2021/12/08 05:45:31;;;;;;;9.52;1.52;;;;;;;3.82;90.44;99338.41;5020973;28;20038;-74
2021/12/08 05:47:57;;;;;;;10.93;1.30;;;;;;;3.81;90.39;99353.69;5023739;28;20493;-74
2021/12/08 05:50:38;;;;;;;9.07;1.67;;;;;;;3.88;90.22;99354.16;5021237;28;20026;-73
2021/12/08 05:53:04;;;;;;;7.18;1.63;;;;;;;3.90;89.80;99349.53;5026091;28;20025;-70
2021/12/08 05:55:31;;;;;;;6.13;1.20;;;;;;;3.89;90.30;99353.19;5017622;28;20037;-71
2021/12/08 05:57:58;;;;;;;4.65;1.70;;;;;;;3.89;89.55;99346.94;5022138;28;20063;-71
2021/12/08 06:00:35;;;;;;;8.57;1.40;;;;;;;3.86;89.76;99348.00;5019296;28;20036;-75
2021/12/08 06:03:02;;;;;;;11.50;3.08;;;;;;;3.80;89.63;99338.53;5021744;28;20030;-74
2021/12/08 06:05:29;;;;;;;5.53;1.73;;;;;;;3.79;89.72;99363.72;5017574;28;20025;-74
2021/12/08 06:07:54;;;;;;;5.93;1.30;;;;;;;3.73;89.82;99364.16;5027610;28;20029;-75
2021/12/08 06:10:25;;;;;;;5.57;1.48;;;;;;;3.74;90.47;99359.63;5021994;28;20036;-74
2021/12/08 06:12:51;;;;;;;7.53;1.73;;;;;;;3.71;90.20;99363.38;5009954;28;20033;-74
2021/12/08 06:15:17;;;;;;;10.57;1.60;;;;;;;3.69;90.44;99369.84;5008622;28;20030;-75
2021/12/08 06:17:43;;;;;;;5.57;1.25;;;;;;;3.60;90.16;99357.88;5021071;28;20104;-74
2021/12/08 06:20:11;;;;;;;8.95;1.70;;;;;;;3.61;90.34;99362.28;5006501;28;20137;-74
2021/12/08 06:22:38;;;;;;;7.50;1.65;;;;;;;3.63;90.39;99371.09;5005401;28;20371;-74
2021/12/08 06:25:04;;;;;;;7.72;1.55;;;;;;;3.63;90.14;99381.84;5015626;28;20028;-74
2021/12/08 06:27:30;;;;;;;4.05;1.33;;;;;;;3.65;90.57;99384.44;5026564;28;20033;-74
2021/12/08 06:29:55;;;;;;;5.63;1.92;;;;;;;3.65;89.92;99371.88;5024374;28;20025;-74
2021/12/08 06:32:20;;;;;;;8.10;1.58;;;;;;;3.63;89.90;99387.22;5024250;28;20393;-73
2021/12/08 06:34:50;;;;;;;14.77;2.28;;;;;;;3.54;90.00;99377.97;5024990;28;20112;-75
2021/12/08 06:37:25;;;;;;;9.40;2.40;;;;;;;3.54;90.06;99394.09;5031232;28;20850;-75
2021/12/08 06:40:13;;;;;;;12.07;2.30;;;;;;;3.55;89.85;99392.28;5020226;28;20049;-71
2021/12/08 06:42:40;;;;;;;15.55;1.70;;;;;;;3.54;89.86;99394.09;5028048;28;20040;-75
2021/12/08 06:45:08;;;;;;;8.27;1.88;;;;;;;3.55;89.63;99393.13;5028038;28;20029;-74
2021/12/08 06:47:34;;;;;;;13.60;2.40;;;;;;;3.54;89.59;99393.22;5020906;28;20053;-74
2021/12/08 06:50:05;;;;;;;16.05;2.80;;;;;;;3.51;89.58;99386.22;5027856;28;20445;-74
2021/12/08 06:52:37;;;;;;;5.97;1.60;;;;;;;3.41;89.38;99389.66;5029198;28;20025;-70
2021/12/08 06:55:12;;;;;;;;;;;;;;;3.43;89.95;99403.84;5028668;28;20392;-74
2021/12/08 06:57:42;;;;;;;9.13;1.83;;;;;;;3.36;89.66;99410.56;5025369;28;20320;-74
2021/12/08 07:00:23;;;;;;;8.52;1.65;;;;;;;3.36;89.73;99408.75;5027629;28;20049;-74
2021/12/08 07:03:17;;;;;;;7.10;2.05;;;;;;;3.32;89.49;99394.66;5021139;28;20465;-74
2021/12/08 07:06:04;;;;;;;6.65;1.77;;;;;;;3.28;89.50;99397.66;5028209;28;20033;-70
2021/12/08 07:08:28;;;;;;;4.53;1.45;;;;;;;3.25;89.51;99408.59;5029713;28;20048;-74
2021/12/08 07:10:56;;;;;;;11.57;2.22;;;;;;;3.22;89.64;99406.97;5027833;28;20030;-74
2021/12/08 07:13:25;;;;;;;5.75;2.15;;;;;;;3.19;89.78;99425.13;5018496;28;20097;-74
2021/12/08 07:16:02;;;;;;;8.80;1.92;;;;;;;3.15;90.05;99440.56;5027513;28;20052;-73
2021/12/08 07:18:38;;;;;;;8.25;2.13;;;;;;;3.04;89.96;99435.03;5029983;28;20268;-73
2021/12/08 07:21:05;;;;;;;9.43;2.40;;;;;;;3.01;90.39;99446.84;5027629;28;20124;-74
2021/12/08 07:23:38;;;;;;;8.40;2.20;;;;;;;2.97;90.41;99439.06;5028167;28;20394;-71
2021/12/08 07:26:09;;;;;;;;;;;;;;;2.96;90.39;99453.47;5028394;28;20021;-74
2021/12/08 07:28:37;;;;;;;6.00;1.30;;;;;;;2.95;90.45;99457.13;5029625;28;19959;-71
2021/12/08 07:31:15;;;;;;;10.23;1.98;;;;;;;2.90;90.54;99462.78;5035094;28;20121;-74
2021/12/08 07:33:43;;;;;;;3.65;1.67;;;;;;;2.92;90.33;99460.00;5017411;28;20088;-74
2021/12/08 07:36:11;;;;;;;8.27;2.10;;;;;;;2.91;90.70;99472.56;5028000;28;20025;-71
2021/12/08 07:38:38;;;;;;;10.90;2.25;;;;;;;2.88;90.68;99474.56;5014956;28;20056;-74
2021/12/08 07:41:10;;;;;;;6.90;1.95;;;;;;;2.85;90.54;99489.06;5027235;28;20039;-74
2021/12/08 07:43:42;;;;;;;11.32;1.80;;;;;;;2.85;90.56;99499.81;5028194;28;20045;-74
2021/12/08 07:46:13;;;;;;;5.95;1.33;;;;;;;2.85;90.79;99496.28;5018528;28;20464;-73
2021/12/08 07:49:05;;;;;;;10.10;1.83;;;;;;;2.93;90.86;99499.31;5017164;28;20124;-74
2021/12/08 07:51:36;;;;;;;7.68;1.83;;;;;;;2.97;91.23;99493.66;5014928;28;20060;-71
2021/12/08 07:54:03;;;;;;;10.05;1.80;;;;;;;3.03;90.90;99492.41;5018653;28;20081;-74
2021/12/08 07:56:29;;;;;;;9.18;1.67;;;;;;;3.07;90.74;99489.41;5018996;28;20025;-74
2021/12/08 07:58:59;;;;;;;10.82;1.70;;;;;;;3.15;90.64;99496.16;5021093;28;20147;-76
2021/12/08 08:01:29;;;;;;;8.32;1.70;;;;;;;3.19;90.53;99490.47;5016755;28;20026;-71
2021/12/08 08:03:56;;;;;;;7.55;1.50;;;;;;;3.25;90.45;99489.22;5023767;28;20047;-74
2021/12/08 08:06:27;;;;;;;4.47;2.05;;;;;;;3.30;90.47;99484.41;5027737;28;20017;-74
2021/12/08 08:08:52;;;;;;;7.05;1.75;;;;;;;3.32;89.80;99477.97;5021051;28;20148;-74
2021/12/08 08:11:24;;;;;;;7.38;1.63;;;;;;;3.37;90.06;99492.94;5022664;28;20104;-71
2021/12/08 08:13:50;;;;;;;9.20;1.90;;;;;;;3.40;90.04;99484.66;5036386;28;20033;-74
2021/12/08 08:16:21;;;;;;;5.90;1.80;;;;;;;3.43;89.80;99485.34;5022786;28;20495;-74
2021/12/08 08:18:59;;;;;;;13.43;2.22;;;;;;;3.48;89.53;99503.84;5029158;28;20040;-70
2021/12/08 08:21:29;;;;;;;5.22;1.50;;;;;;;3.49;89.46;99493.00;5022627;28;20065;-74
2021/12/08 08:23:58;;;;;;;5.60;1.35;;;;;;;3.54;88.43;99492.69;5014623;28;20037;-74
2021/12/08 08:26:26;;;;;;;9.00;1.80;;;;;;;3.58;88.49;99492.41;5028294;28;20021;-74
2021/12/08 08:28:52;;;;;;;11.30;2.28;;;;;;;3.59;88.40;99495.97;5026421;28;20030;-74
2021/12/08 08:31:25;;;;;;;6.10;1.70;;;;;;;3.61;88.35;99498.56;5021107;28;20381;-70
2021/12/08 08:33:51;;;;;;;10.25;1.60;;;;;;;3.63;88.19;99504.69;5028484;28;20014;-74
2021/12/08 08:36:23;;;;;;;11.30;1.98;;;;;;;3.67;87.84;99496.31;5027566;28;20048;-70
2021/12/08 08:39:01;;;;;;;7.00;1.50;;;;;;;3.72;87.55;99479.88;5027598;28;20401;-75
2021/12/08 08:41:48;;;;;;;6.75;1.92;;;;;;;3.75;88.14;99472.47;5019132;28;20120;-74
2021/12/08 08:44:39;;;;;;;6.82;1.75;;;;;;;3.81;88.48;99479.25;5020573;28;20427;-74
2021/12/08 08:47:11;;;;;;;3.88;1.58;;;;;;;3.81;87.37;99477.44;5024083;28;20053;-74
2021/12/08 08:49:39;;;;;;;12.02;2.63;;;;;;;3.84;87.08;99469.16;5026818;28;20433;-74
2021/12/08 08:52:18;;;;;;;9.68;2.70;;;;;;;3.83;87.30;99467.44;5028388;28;20087;-74
2021/12/08 08:54:46;;;;;;;9.02;1.83;;;;;;;3.81;86.95;99465.81;5026092;28;20028;-74
2021/12/08 08:57:17;;;;;;;8.30;1.60;;;;;;;3.77;86.84;99465.16;5027489;28;20059;-71
2021/12/08 08:59:48;;;;;;;5.55;1.75;;;;;;;3.73;86.69;99471.72;5015924;28;20105;-70
2021/12/08 09:02:21;;;;;;;3.67;1.70;;;;;;;3.72;86.70;99493.31;5023992;28;20061;-70
2021/12/08 09:04:51;;;;;;;8.77;2.05;;;;;;;3.68;87.11;99489.09;5016869;28;20026;-72
2021/12/08 09:07:23;;;;;;;6.88;1.77;;;;;;;3.71;86.89;99495.16;5026836;28;20115;-75
2021/12/08 09:09:51;;;;;;;6.20;1.80;;;;;;;3.75;87.10;99493.97;5022261;28;20462;-71
2021/12/08 09:12:25;;;;;;;5.47;1.92;;;;;;;3.79;87.27;99500.03;5027353;28;20036;-74
2021/12/08 09:14:56;;;;;;;8.73;1.98;;;;;;;3.82;86.67;99492.63;5015629;28;20104;-74
2021/12/08 09:17:26;;;;;;;4.20;2.03;;;;;;;3.91;86.21;99503.72;5010305;28;20029;-71
2021/12/08 09:20:01;;;;;;;6.55;1.75;;;;;;;3.87;86.26;99492.31;5026419;28;20033;-74
2021/12/08 09:22:39;;;;;;;10.68;2.20;;;;;;;3.87;86.61;99496.81;5019420;28;20497;-74
2021/12/08 09:25:22;;;;;;;4.82;1.67;;;;;;;3.86;86.74;99497.78;5024764;28;20385;-74
2021/12/08 09:27:51;;;;;;;;;;;;;;;3.88;87.34;99512.88;5025656;28;20103;-71
2021/12/08 09:30:32;;;;;;;4.88;1.90;;;;;;;3.88;86.53;99514.72;5019739;28;19913;-73
2021/12/08 09:33:05;;;;;;;4.10;1.50;;;;;;;3.90;85.62;99524.38;5025103;28;20041;-75
2021/12/08 09:35:33;;;;;;;;;;;;;;;3.98;87.00;99531.97;5026282;28;20472;-71
2021/12/08 09:38:10;;;;;;;5.55;1.50;;;;;;;4.14;86.60;99537.16;5025936;28;19909;-74
2021/12/08 09:40:41;;;;;;;6.55;2.65;;;;;;;4.31;86.18;99524.31;5016614;28;20411;-75
2021/12/08 09:43:21;;;;;;;7.60;1.67;;;;;;;4.44;85.63;99534.25;5012022;28;20048;-75
2021/12/08 09:45:55;;;;;;;5.25;1.50;;;;;;;4.52;86.23;99534.56;5016735;28;20296;-70
2021/12/08 09:48:26;;;;;;;9.52;1.77;;;;;;;4.55;85.75;99515.50;5038076;28;20025;-74
2021/12/08 09:50:53;;;;;;;5.75;1.67;;;;;;;4.58;84.90;99526.94;5019408;28;20060;-74
2021/12/08 09:53:19;;;;;;;4.30;1.42;;;;;;;4.59;84.16;99514.34;5022995;28;20084;-74
2021/12/08 09:55:44;;;;;;;10.20;2.05;;;;;;;4.61;84.40;99515.06;5027524;28;20033;-74
2021/12/08 09:58:10;;;;;;;8.98;1.30;;;;;;;4.60;84.13;99510.66;5026001;28;20210;-70
2021/12/08 10:00:39;;;;;;;4.63;1.60;;;;;;;4.61;84.04;99505.16;5021774;28;20026;-74
2021/12/08 10:03:05;;;;;;;7.57;2.10;;;;;;;4.63;84.14;99504.22;5021340;28;20025;-74
2021/12/08 10:05:33;;;;;;;8.63;2.25;;;;;;;4.61;84.11;99497.09;5026703;28;20076;-71
2021/12/08 10:08:00;;;;;;;9.40;1.48;;;;;;;4.59;82.95;99493.66;5028989;28;20025;-71
2021/12/08 10:10:27;;;;;;;5.75;1.17;;;;;;;4.61;83.91;99494.38;5020080;28;20318;-74
2021/12/08 10:12:52;;;;;;;7.07;1.60;;;;;;;4.62;83.80;99492.59;5017025;28;20017;-71
2021/12/08 10:15:19;;;;;;;5.70;1.35;;;;;;;4.65;83.54;99495.03;5026274;28;20072;-74
2021/12/08 10:17:46;;;;;;;3.85;1.60;;;;;;;4.66;83.95;99487.81;5027119;28;20029;-75
2021/12/08 10:20:26;;;;;;;5.95;1.73;;;;;;;4.72;83.60;99479.34;5030538;28;20037;-71
2021/12/08 10:23:32;;;;;;;2.50;1.30;;;;;;;4.75;84.80;99479.94;5020382;28;20113;-71
2021/12/08 10:26:02;;;;;;;4.53;1.67;;;;;;;4.80;84.24;99476.94;4980314;28;20125;-70
2021/12/08 10:28:35;;;;;;;5.63;2.03;;;;;;;4.84;82.82;99475.75;5009330;28;20520;-70
2021/12/08 10:31:25;;;;;;;3.38;1.35;;;;;;;4.91;83.58;99468.97;5022408;28;20114;-74
2021/12/08 10:36:47;;;;;;;4.70;1.30;;;;;;;4.98;82.85;99475.63;5030569;28;20022;-74
2021/12/08 10:39:18;;;;;;;10.63;1.90;;;;;;;5.02;82.14;99462.81;5019046;28;20480;-75
2021/12/08 10:41:55;;;;;;;6.05;1.40;;;;;;;5.07;82.92;99461.50;5028887;28;20040;-74
2021/12/08 10:44:24;;;;;;;5.82;1.60;;;;;;;5.11;82.51;99454.91;5030317;28;20028;-74
2021/12/08 10:46:54;;;;;;;5.60;1.65;;;;;;;5.16;81.76;99459.97;5017746;28;20033;-74
2021/12/08 10:54:45;;;;;;;7.43;1.30;;;;;;;5.31;81.46;99469.63;5021014;28;20401;-75
2021/12/08 10:57:35;;;;;;;4.40;1.90;;;;;;;5.30;82.57;99465.22;5030142;28;20025;-75
2021/12/08 11:00:29;;;;;;;3.92;1.73;;;;;;;5.30;81.81;99470.63;5022114;28;20046;-71
2021/12/08 11:03:00;;;;;;;3.42;1.67;;;;;;;5.28;81.38;99477.09;5011121;28;20033;-74
2021/12/08 11:05:26;;;;;;;2.67;1.90;;;;;;;5.35;82.05;99489.16;5029952;28;20438;-71
2021/12/08 11:08:18;;;;;;;3.30;1.77;;;;;;;5.44;84.12;99491.19;5025900;28;20108;-74
2021/12/08 11:10:51;;;;;;;11.10;1.73;;;;;;;5.56;82.26;99505.63;5013435;28;20033;-74
2021/12/08 11:13:25;;;;;;;5.85;1.73;;;;;;;5.63;81.44;99502.34;5018153;28;20025;-71
2021/12/08 11:16:01;;;;;;;4.88;2.10;;;;;;;5.70;81.20;99513.56;5016412;28;20068;-70
2021/12/08 11:18:30;;;;;;;6.47;1.63;;;;;;;5.77;81.32;99517.50;5010657;28;20029;-74
2021/12/08 11:21:00;;;;;;;5.55;1.85;;;;;;;5.86;80.21;99521.38;5026538;28;20033;-74
2021/12/08 11:26:15;;;;;;;6.70;1.83;;;;;;;5.93;80.67;99532.63;5010324;28;20073;-74
2021/12/08 11:28:41;;;;;;;8.23;1.92;;;;;;;5.93;80.33;99521.81;5023295;28;20384;-75
2021/12/08 11:31:11;;;;;;;4.75;2.50;;;;;;;5.94;80.27;99524.41;5019826;28;20040;-74
2021/12/08 11:33:42;;;;;;;8.07;1.88;;;;;;;5.97;80.38;99528.69;5029213;28;20021;-74
2021/12/08 11:36:15;;;;;;;5.40;1.80;;;;;;;5.99;80.04;99534.84;5029365;28;20100;-74
2021/12/08 11:38:41;;;;;;;;;;;;;;;6.02;81.72;99535.50;5016664;28;20042;-74
2021/12/08 11:41:22;;;;;;;3.80;1.65;;;;;;;5.99;80.52;99538.41;5029416;28;19927;-73
2021/12/08 11:43:56;;;;;;;8.02;1.70;;;;;;;5.99;80.20;99546.50;5028355;28;20159;-74
2021/12/08 11:46:22;;;;;;;3.35;1.50;;;;;;;5.99;79.89;99553.75;5028111;28;20061;-72
2021/12/08 11:49:08;;;;;;;10.70;1.60;;;;;;;5.97;80.47;99551.19;5045360;28;20026;-73
2021/12/08 11:51:50;;;;;;;2.33;1.30;;;;;;;5.98;80.22;99552.91;5018312;28;20114;-74
2021/12/08 11:54:40;;;;;;;4.00;1.60;;;;;;;5.97;80.05;99559.28;5029229;28;20025;-74
2021/12/08 11:57:23;;;;;;;5.80;1.88;;;;;;;5.95;79.97;99555.81;5028184;28;20029;-74
2021/12/08 12:00:04;;;;;;;4.45;1.60;;;;;;;5.95;80.08;99563.91;5020729;28;20033;-74
2021/12/08 12:02:39;;;;;;;6.78;1.60;;;;;;;5.98;80.67;99573.63;5014652;28;20025;-74
2021/12/08 12:05:08;;;;;;;7.00;1.77;;;;;;;5.98;80.07;99570.94;5029194;28;20052;-75
2021/12/08 12:07:34;;;;;;;3.63;1.70;;;;;;;6.01;80.39;99578.78;5024731;28;20065;-71
2021/12/08 12:10:00;;;;;;;4.22;1.77;;;;;;;6.05;80.73;99586.53;5028869;28;20068;-74
2021/12/08 12:12:26;;;;;;;6.75;2.03;;;;;;;6.02;80.22;99586.78;5009811;28;20054;-74
2021/12/08 12:14:51;;;;;;;3.10;1.60;;;;;;;6.06;80.36;99587.41;5025270;28;20024;-73
2021/12/08 12:17:17;;;;;;;3.83;1.80;;;;;;;6.04;80.14;99581.25;5018981;28;20174;-74
2021/12/08 12:19:51;;;;;;;2.03;1.63;;;;;;;6.05;80.07;99600.03;5020939;28;20040;-73
2021/12/08 12:22:27;;;;;;;4.75;1.70;;;;;;;6.05;81.21;99612.69;5027743;28;20416;-73
2021/12/08 12:25:20;;;;;;;4.72;1.85;;;;;;;6.04;80.93;99617.22;5020411;28;20120;-74
2021/12/08 12:27:59;;;;;;;;;;;;;;;6.08;81.88;99617.88;5028825;28;20040;-74
2021/12/08 12:30:42;;;;;;;9.23;1.77;;;;;;;6.07;80.22;99621.56;5014674;28;19921;-74
2021/12/08 12:33:22;;;;;;;7.38;2.03;;;;;;;6.10;81.20;99618.59;5019265;28;20657;-74
2021/12/08 12:35:53;;;;;;;2.83;1.58;;;;;;;6.12;81.30;99624.78;5027174;28;20021;-74
2021/12/08 12:38:36;;;;;;;6.22;1.77;;;;;;;6.13;80.01;99634.59;5026230;28;20024;-74
2021/12/08 12:41:04;;;;;;;8.07;1.85;;;;;;;6.08;79.46;99624.13;5023696;28;20111;-75
2021/12/08 12:43:35;;;;;;;3.63;1.35;;;;;;;6.12;80.49;99630.16;5010693;28;20034;-74
2021/12/08 12:46:04;;;;;;;4.60;1.42;;;;;;;6.12;80.21;99624.78;5020226;28;20026;-74